createdAt,value
2019-01-03T00:08:01.434Z,65.71
2019-01-03T01:05:56.576Z,66.78
2019-01-03T01:34:32.748Z,67.46
2019-01-03T02:03:08.885Z,67.64
2019-01-03T02:31:48.121Z,68.01
2019-01-03T03:00:20.623Z,68.26
2019-01-03T03:28:57.090Z,68.92
2019-01-03T03:57:36.229Z,69.23
2019-01-03T04:26:09.843Z,69.18
2019-01-03T04:54:43.002Z,69.17
2019-01-03T05:23:20.903Z,69.13
2019-01-03T05:51:55.174Z,69.06
2019-01-03T06:20:29.688Z,68.96
2019-01-03T06:49:06.344Z,68.48
2019-01-03T07:17:45.018Z,68.13
2019-01-03T07:46:17.998Z,67.88
2019-01-03T08:14:53.529Z,67.53
2019-01-03T08:43:36.933Z,66.18
2019-01-03T09:12:14.526Z,64.89
2019-01-03T09:40:57.125Z,63.52
2019-01-03T10:09:36.371Z,62.92
2019-01-03T10:38:10.002Z,62.05
2019-01-03T11:06:50.337Z,62.08
2019-01-03T11:35:32.031Z,61.14
2019-01-03T12:04:12.117Z,61.19
2019-01-03T12:32:52.059Z,61.29
2019-01-03T13:01:30.565Z,62.74
2019-01-03T13:30:09.794Z,65.2
2019-01-03T13:58:47.298Z,66.12
2019-01-03T14:56:28.869Z,68.56
2019-01-03T15:25:04.121Z,69.72
2019-01-03T15:53:41.360Z,70.08
2019-01-03T16:22:19.607Z,70.68
2019-01-03T16:50:57.350Z,70.9
2019-01-03T17:19:36.042Z,71.19
2019-01-03T17:48:03.139Z,71.85
2019-01-03T18:16:38.616Z,71.53
2019-01-03T18:45:16.778Z,71.5
2019-01-03T19:13:54.242Z,72.12
2019-01-03T19:42:33.148Z,71.12
2019-01-03T20:11:07.558Z,71.58
2019-01-03T20:39:44.254Z,72.11
2019-01-03T21:08:20.788Z,72.5
2019-01-03T21:36:56.656Z,73.22
2019-01-03T22:05:36.397Z,73.33
2019-01-03T22:34:13.349Z,73.31
2019-01-03T23:02:51.331Z,73.61
2019-01-03T23:31:29.709Z,73.87
